Meath Environmental Platform

Observations for Trim Market St

Time AQI Temp °C Hum % Pres Pa CO μg/m³ H₂S μg/m³ NO μg/m³ NO₂ μg/m³ O₃ μg/m³ SO₂ μg/m³ PM1 μg/m³ PM2.5 μg/m³ PM10 μg/m³
Tuesday 18 August 2026
17:12 2 22.6 50 63,175 0 0 2.65 21.6 67.53 0 0 2.99 3.79
17:11 2 22.7 50 63,311 0 0 2.66 11.58 84.1 0 0 2.99 4.53
17:10 2 22.7 49 63,396 0 0 2.65 11.93 84.05 0 0 2.99 3.78
17:09 2 22.7 49 63,513 0 0 2.66 11.52 84.97 0 0 2.48 2.73
17:08 2 22.8 49 63,623 0 0 2.7 14.12 75.87 0 0 2.48 2.73
17:07 2 22.8 49 63,699 0.92 1.62 2.73 12.58 71.18 0 0 2.48 2.73
17:06 2 22.8 49 63,726 0 0 2.88 12.21 81.46 0 0.71 2.48 2.73
17:04 2 22.9 49 63,787 0.02 0 2.67 15.12 56.82 0 0 2.48 2.73
17:03 2 22.9 49 63,736 0.5 0 2.68 23.1 61.31 0 0 1.97 2.16
17:02 2 23 49 63,705 0 0 2.52 16.36 68.02 0 0.71 3 4.53
17:01 2 23 49 63,659 0 0 2.04 11.67 73.04 0 0 1.97 3.03
17:00 2 23 49 63,570 0 0 1.7 11.45 83.58 0 0 2.48 2.73
16:59 2 23.1 49 63,584 0 0 1.91 11.47 90.85 0 0 1.97 2.16
16:58 2 23.1 49 63,677 0 0 2.22 11.67 90.15 0 0.71 2.49 2.74
16:57 2 23.1 49 63,839 0 0 2.38 11.65 82.97 0 0 3.01 3.02
16:56 2 23.1 49 63,916 0 0 2.63 11.58 84.65 0 0 3.02 3.32
16:53 2 23.2 49 64,244 0 0 2.66 11.94 75.46 0 0 2 3
16:43 2 23.5 48 64,629 0 0 1.51 11 86.48 0 0 2.56 2.81
16:42 2 23.5 48 64,651 0 0 1.53 11.02 87.62 0 0 2.04 2.97
16:40 2 23.5 48 64,709 0 0 1.89 11.17 85.89 0 0 2.55 3.73